createdAt,value
2018-03-24T00:01:30.265Z,81.90
2018-03-24T00:04:00.064Z,82.06
2018-03-24T00:06:28.355Z,81.62
2018-03-24T00:08:57.407Z,81.53
2018-03-24T00:11:25.689Z,82.06
2018-03-24T00:13:54.284Z,81.09
2018-03-24T00:16:22.736Z,81.39
2018-03-24T00:18:50.997Z,81.88
2018-03-24T00:21:19.317Z,81.47
2018-03-24T00:23:47.581Z,80.94
2018-03-24T00:26:15.859Z,81.18
2018-03-24T00:28:44.144Z,81.16
2018-03-24T00:31:12.828Z,80.53
2018-03-24T00:33:41.088Z,80.94
2018-03-24T00:36:09.589Z,81.02
2018-03-24T00:38:37.853Z,81.70
2018-03-24T00:41:06.635Z,81.05
2018-03-24T00:43:35.036Z,80.50
2018-03-24T00:46:03.421Z,80.87
2018-03-24T00:48:31.930Z,80.51
2018-03-24T00:51:00.253Z,80.57
2018-03-24T00:53:28.524Z,80.66
2018-03-24T00:55:57.160Z,80.51
2018-03-24T00:58:25.829Z,80.71
2018-03-24T01:00:54.091Z,81.20
2018-03-24T01:03:22.381Z,81.20
2018-03-24T01:05:50.676Z,81.77
2018-03-24T01:08:19.724Z,82.41
2018-03-24T01:10:48.038Z,82.20
2018-03-24T01:13:16.328Z,81.87
2018-03-24T01:15:44.606Z,81.95
2018-03-24T01:18:12.960Z,82.11
2018-03-24T01:20:41.280Z,82.31
2018-03-24T01:23:10.326Z,82.07
2018-03-24T01:25:39.267Z,81.63
2018-03-24T01:28:07.621Z,81.50
2018-03-24T01:30:35.893Z,82.08
2018-03-24T01:33:04.178Z,82.42
2018-03-24T01:35:32.942Z,83.01
2018-03-24T01:38:01.893Z,83.20
2018-03-24T01:40:30.195Z,83.18
2018-03-24T01:42:58.472Z,83.10
2018-03-24T01:45:26.776Z,83.57
2018-03-24T01:47:55.169Z,83.63
2018-03-24T01:50:24.229Z,83.77
2018-03-24T01:52:52.880Z,83.76
2018-03-24T01:55:21.235Z,83.85
2018-03-24T01:57:49.500Z,84.05
2018-03-24T02:00:17.883Z,84.24
2018-03-24T02:02:46.170Z,84.58
2018-03-24T02:05:14.445Z,84.68
2018-03-24T02:07:43.052Z,84.70
2018-03-24T02:10:12.331Z,84.78
2018-03-24T02:12:40.697Z,85.49
2018-03-24T02:15:08.976Z,85.39
2018-03-24T02:17:37.281Z,85.58
2018-03-24T02:20:06.002Z,85.44
2018-03-24T02:22:36.589Z,85.21
2018-03-24T02:25:11.199Z,85.53
2018-03-24T02:27:39.585Z,85.71
2018-03-24T02:30:07.847Z,85.83
2018-03-24T02:32:36.143Z,85.85
2018-03-24T02:35:04.528Z,85.85
2018-03-24T02:37:32.821Z,86.07
2018-03-24T02:40:01.088Z,86.33
2018-03-24T02:42:29.458Z,86.04
2018-03-24T02:44:57.727Z,85.30
2018-03-24T02:47:26.021Z,85.83
2018-03-24T02:49:54.306Z,85.62
2018-03-24T02:52:23.114Z,85.56
2018-03-24T02:54:51.802Z,85.84
2018-03-24T02:57:20.146Z,85.95
2018-03-24T02:59:48.524Z,85.92
2018-03-24T03:02:16.797Z,85.65
2018-03-24T03:04:45.185Z,85.84
2018-03-24T03:07:13.563Z,85.72
2018-03-24T03:09:41.841Z,85.47
2018-03-24T03:12:10.161Z,85.64
2018-03-24T03:14:38.448Z,85.10
2018-03-24T03:17:07.505Z,85.24
2018-03-24T03:19:36.016Z,84.94
2018-03-24T03:22:04.297Z,84.41
2018-03-24T03:24:32.594Z,84.80
2018-03-24T03:27:01.718Z,84.16
2018-03-24T03:29:30.033Z,84.48
2018-03-24T03:34:59.152Z,84.52
2018-03-24T03:37:28.044Z,84.91
2018-03-24T03:39:56.311Z,84.70
2018-03-24T03:42:24.673Z,84.12
2018-03-24T03:44:53.827Z,83.70
2018-03-24T03:47:22.998Z,84.13
2018-03-24T03:49:51.348Z,83.78
2018-03-24T03:52:19.641Z,83.86
2018-03-24T03:54:47.979Z,83.53
2018-03-24T03:57:16.256Z,83.85
2018-03-24T03:59:44.767Z,83.97
2018-03-24T04:02:13.053Z,83.94
2018-03-24T04:04:41.327Z,85.23
2018-03-24T04:07:09.626Z,84.23
2018-03-24T04:09:38.667Z,84.67
2018-03-24T04:12:06.985Z,84.11
2018-03-24T04:14:35.263Z,84.13
2018-03-24T04:17:03.558Z,84.05
2018-03-24T04:19:31.937Z,84.08
2018-03-24T04:22:00.293Z,84.08
2018-03-24T04:24:28.580Z,84.18
2018-03-24T04:26:56.859Z,84.26
2018-03-24T04:29:25.166Z,83.92
2018-03-24T04:31:53.461Z,84.25
2018-03-24T04:34:22.600Z,84.64
2018-03-24T04:36:50.978Z,84.84
2018-03-24T04:39:19.276Z,84.52
2018-03-24T04:41:47.552Z,83.95
2018-03-24T04:44:15.845Z,83.87
2018-03-24T04:46:44.183Z,84.44
2018-03-24T04:49:12.491Z,84.89
2018-03-24T04:51:40.768Z,84.44
2018-03-24T04:54:09.456Z,84.36
2018-03-24T04:56:37.737Z,84.52
2018-03-24T04:59:06.112Z,84.33
2018-03-24T05:01:34.660Z,84.93
2018-03-24T05:04:02.948Z,84.26
2018-03-24T05:06:31.221Z,84.57
2018-03-24T05:08:59.516Z,84.75
2018-03-24T05:11:27.835Z,84.81
2018-03-24T05:13:57.125Z,85.40
2018-03-24T05:16:25.618Z,85.30
2018-03-24T05:18:54.056Z,85.09
2018-03-24T05:21:22.327Z,84.05
2018-03-24T05:23:51.256Z,84.28
2018-03-24T05:26:19.600Z,84.85
2018-03-24T05:28:49.189Z,83.83
2018-03-24T05:31:17.977Z,84.51
2018-03-24T05:33:46.240Z,84.18
2018-03-24T05:36:15.318Z,84.40
2018-03-24T05:38:44.098Z,83.84
2018-03-24T05:41:13.965Z,83.88
2018-03-24T05:43:43.118Z,84.31
2018-03-24T05:46:13.794Z,84.39
2018-03-24T05:48:42.352Z,84.21
2018-03-24T05:51:10.672Z,84.69
2018-03-24T05:53:40.796Z,84.44
2018-03-24T05:56:09.688Z,84.44
2018-03-24T05:58:38.064Z,84.43
2018-03-24T06:01:07.913Z,84.38
2018-03-24T06:03:36.228Z,84.07
2018-03-24T06:06:04.542Z,84.37
2018-03-24T06:08:32.807Z,84.31
2018-03-24T06:11:01.393Z,84.23
2018-03-24T06:13:29.663Z,84.10
2018-03-24T06:15:57.953Z,84.09
2018-03-24T06:18:26.522Z,83.57
2018-03-24T06:20:54.797Z,83.94
2018-03-24T06:23:23.070Z,83.54
2018-03-24T06:25:52.385Z,83.72
2018-03-24T06:28:20.929Z,83.15
2018-03-24T06:30:50.316Z,82.89
2018-03-24T06:33:18.599Z,83.08
2018-03-24T06:35:46.912Z,82.78
2018-03-24T06:38:15.218Z,83.07
2018-03-24T06:40:43.511Z,83.04
2018-03-24T06:43:12.004Z,82.99
2018-03-24T06:45:40.301Z,82.96
2018-03-24T06:48:09.121Z,82.43
2018-03-24T06:50:37.424Z,82.40
2018-03-24T06:53:05.709Z,82.50
2018-03-24T06:55:34.431Z,81.71
2018-03-24T06:58:03.684Z,81.11
2018-03-24T07:00:32.056Z,80.89
2018-03-24T07:03:01.227Z,81.36
2018-03-24T07:05:30.341Z,81.03
2018-03-24T07:07:59.483Z,80.86
2018-03-24T07:10:27.760Z,80.68
2018-03-24T07:12:56.959Z,80.17
2018-03-24T07:15:25.267Z,79.92
2018-03-24T07:17:54.561Z,79.25
2018-03-24T07:20:27.166Z,80.02
2018-03-24T07:22:56.894Z,79.73
2018-03-24T07:25:25.192Z,80.26
2018-03-24T07:27:53.501Z,79.63
2018-03-24T07:30:22.956Z,79.78
2018-03-24T07:32:52.060Z,80.04
2018-03-24T07:35:20.896Z,79.67
2018-03-24T07:37:49.978Z,80.07
2018-03-24T07:40:20.324Z,79.40
2018-03-24T07:42:49.387Z,79.31
2018-03-24T07:45:17.661Z,78.76
2018-03-24T07:47:46.037Z,78.31
2018-03-24T07:50:14.364Z,78.80
2018-03-24T07:52:44.029Z,78.54
2018-03-24T07:55:12.392Z,78.10
2018-03-24T07:57:41.400Z,79.36
2018-03-24T08:00:09.747Z,77.95
2018-03-24T08:02:38.040Z,78.47
2018-03-24T08:05:06.349Z,78.67
2018-03-24T08:07:36.044Z,77.67
2018-03-24T08:10:05.199Z,77.29
2018-03-24T08:12:35.789Z,77.58
2018-03-24T08:15:05.268Z,77.74
2018-03-24T08:17:34.872Z,77.62
2018-03-24T08:20:03.152Z,77.21
2018-03-24T08:22:31.853Z,77.33
2018-03-24T08:25:00.148Z,77.31
2018-03-24T08:27:29.008Z,76.98
2018-03-24T08:29:57.320Z,77.50
2018-03-24T08:32:25.689Z,77.55
2018-03-24T08:34:53.977Z,77.06
2018-03-24T08:37:22.246Z,76.83
2018-03-24T08:39:51.348Z,76.32
2018-03-24T08:42:20.158Z,77.48
2018-03-24T08:44:48.663Z,76.99
2018-03-24T08:47:18.679Z,75.55
2018-03-24T08:49:47.731Z,75.38
2018-03-24T08:52:16.267Z,74.23
2018-03-24T08:54:45.815Z,75.16
2018-03-24T08:57:14.148Z,74.57
2018-03-24T08:59:43.201Z,74.38
2018-03-24T09:02:11.468Z,73.68
2018-03-24T09:04:39.839Z,73.55
2018-03-24T09:07:08.181Z,73.34
2018-03-24T09:09:37.225Z,73.27
2018-03-24T09:12:06.729Z,72.71
2018-03-24T09:14:35.000Z,73.37
2018-03-24T09:17:03.296Z,73.10
2018-03-24T09:19:32.215Z,73.10
2018-03-24T09:22:01.286Z,73.24
2018-03-24T09:24:29.562Z,73.21
2018-03-24T09:26:57.936Z,72.65
2018-03-24T09:29:26.715Z,70.58
2018-03-24T09:31:55.906Z,70.38
2018-03-24T09:34:24.200Z,70.71
2018-03-24T09:36:52.462Z,71.35
2018-03-24T09:39:20.861Z,71.91
2018-03-24T09:41:49.231Z,70.37
2018-03-24T09:44:17.511Z,70.76
2018-03-24T09:46:46.816Z,70.40
2018-03-24T09:49:16.914Z,69.98
2018-03-24T09:51:45.338Z,69.09
2018-03-24T09:54:14.693Z,69.73
2018-03-24T09:56:43.100Z,69.22
2018-03-24T09:59:14.430Z,69.62
2018-03-24T10:01:43.355Z,68.82
2018-03-24T10:04:11.842Z,68.96
2018-03-24T10:06:40.148Z,69.21
2018-03-24T10:09:09.213Z,69.23
2018-03-24T10:11:38.309Z,66.66
2018-03-24T10:14:07.060Z,66.99
2018-03-24T10:16:35.503Z,67.43
2018-03-24T10:19:05.521Z,68.11
2018-03-24T10:24:50.026Z,65.81
2018-03-24T10:27:18.632Z,66.60
2018-03-24T10:29:46.919Z,68.57
2018-03-24T10:32:15.947Z,67.59
2018-03-24T10:34:44.921Z,66.12
2018-03-24T10:37:13.282Z,67.21
2018-03-24T10:39:41.611Z,65.63
2018-03-24T10:42:09.900Z,64.60
2018-03-24T10:44:39.352Z,65.55
2018-03-24T10:47:07.641Z,65.88
2018-03-24T10:49:35.912Z,64.64
2018-03-24T10:52:04.272Z,63.55
2018-03-24T10:54:32.545Z,65.65
2018-03-24T10:57:02.642Z,63.38
2018-03-24T10:59:31.159Z,64.59
2018-03-24T11:02:00.532Z,64.40
2018-03-24T11:04:29.451Z,63.59
2018-03-24T11:06:57.909Z,61.93
2018-03-24T11:09:27.490Z,62.30
2018-03-24T11:11:55.863Z,63.70
2018-03-24T11:14:24.153Z,63.48
2018-03-24T11:16:53.312Z,67.00
2018-03-24T11:19:21.628Z,64.57
2018-03-24T11:21:51.812Z,63.32
2018-03-24T11:24:20.199Z,64.34
2018-03-24T11:26:48.590Z,63.41
2018-03-24T11:29:17.702Z,66.24
2018-03-24T11:31:46.080Z,62.97
2018-03-24T11:34:14.630Z,63.02
2018-03-24T11:36:42.936Z,63.91
2018-03-24T11:39:11.228Z,62.43
2018-03-24T11:41:41.182Z,62.90
2018-03-24T11:44:09.480Z,62.39
2018-03-24T11:46:38.909Z,64.98
2018-03-24T11:49:08.958Z,62.22
2018-03-24T11:51:38.628Z,62.85
2018-03-24T11:54:07.026Z,63.05
2018-03-24T11:56:36.200Z,62.85
2018-03-24T11:59:04.496Z,62.09
2018-03-24T12:01:32.933Z,62.85
2018-03-24T12:04:01.205Z,64.04
2018-03-24T12:06:31.230Z,63.92
2018-03-24T12:08:59.589Z,63.66
2018-03-24T12:11:28.648Z,63.45
2018-03-24T12:13:57.754Z,62.78
2018-03-24T12:16:27.140Z,63.72
2018-03-24T12:18:56.825Z,62.87
2018-03-24T12:21:25.980Z,64.10
2018-03-24T12:23:54.278Z,64.06
2018-03-24T12:26:23.390Z,62.86
2018-03-24T12:28:51.785Z,62.88
2018-03-24T12:31:20.684Z,62.33
2018-03-24T12:33:49.012Z,61.69
2018-03-24T12:36:18.281Z,61.62
2018-03-24T12:38:46.776Z,61.96
2018-03-24T12:41:15.748Z,61.25
2018-03-24T12:43:44.415Z,61.49
2018-03-24T12:46:13.529Z,59.12
2018-03-24T12:48:42.722Z,59.97
2018-03-24T12:51:11.050Z,60.36
2018-03-24T12:53:40.136Z,60.52
2018-03-24T12:56:10.016Z,60.37
2018-03-24T12:58:39.104Z,60.89
2018-03-24T13:01:07.510Z,60.76
2018-03-24T13:03:35.797Z,59.61
2018-03-24T13:06:04.085Z,60.27
2018-03-24T13:08:32.415Z,59.53
2018-03-24T13:11:01.084Z,58.50
2018-03-24T13:13:29.737Z,58.73
2018-03-24T13:15:58.011Z,60.31
2018-03-24T13:18:26.321Z,59.51
2018-03-24T13:20:56.089Z,59.08
2018-03-24T13:23:25.148Z,60.51
2018-03-24T13:25:53.996Z,59.27
2018-03-24T13:28:23.644Z,59.22
2018-03-24T13:30:51.958Z,58.64
2018-03-24T13:33:20.459Z,58.06
2018-03-24T13:35:49.065Z,58.43
2018-03-24T13:38:18.900Z,57.05
2018-03-24T13:40:47.902Z,57.56
2018-03-24T13:43:16.236Z,57.34
2018-03-24T13:45:45.736Z,57.83
2018-03-24T13:48:14.530Z,58.23
2018-03-24T13:50:43.779Z,58.23
2018-03-24T13:53:13.020Z,58.49
2018-03-24T13:55:43.858Z,58.33
2018-03-24T13:58:12.147Z,58.89
2018-03-24T14:00:40.416Z,58.55
2018-03-24T14:03:09.425Z,57.84
2018-03-24T14:05:38.573Z,59.40
2018-03-24T14:08:06.885Z,60.47
2018-03-24T14:10:35.200Z,58.33
2018-03-24T14:13:04.245Z,60.06
2018-03-24T14:15:32.625Z,60.08
2018-03-24T14:18:01.222Z,60.32
2018-03-24T14:20:29.494Z,58.31
2018-03-24T14:22:58.464Z,57.37
2018-03-24T14:25:27.624Z,57.99
2018-03-24T14:27:56.679Z,57.79
2018-03-24T14:30:25.330Z,57.50
2018-03-24T14:32:57.320Z,57.73
2018-03-24T14:35:25.701Z,57.00
2018-03-24T14:37:55.328Z,57.28
2018-03-24T14:40:23.589Z,58.86
2018-03-24T14:42:52.565Z,58.30
2018-03-24T14:45:20.845Z,58.06
2018-03-24T14:47:49.216Z,58.61
2018-03-24T14:50:18.345Z,58.62
2018-03-24T14:52:47.723Z,57.01
2018-03-24T14:55:16.016Z,57.12
2018-03-24T14:57:44.397Z,56.71
2018-03-24T15:00:13.016Z,57.00
2018-03-24T15:02:42.884Z,56.46
2018-03-24T15:05:11.189Z,56.90
2018-03-24T15:07:39.469Z,56.58
2018-03-24T15:10:08.767Z,54.91
2018-03-24T15:12:38.997Z,56.28
2018-03-24T15:15:07.382Z,54.96
2018-03-24T15:17:36.431Z,54.63
2018-03-24T15:20:04.761Z,55.44
2018-03-24T15:22:33.099Z,54.87
2018-03-24T15:25:02.300Z,55.74
2018-03-24T15:27:30.601Z,56.70
2018-03-24T15:33:30.625Z,55.83
2018-03-24T15:36:16.628Z,56.50
2018-03-24T15:38:45.008Z,56.43
2018-03-24T15:41:13.328Z,56.05
2018-03-24T15:43:42.359Z,56.20
2018-03-24T15:46:10.643Z,55.62
2018-03-24T15:48:39.124Z,56.07
2018-03-24T15:51:08.042Z,55.77
2018-03-24T15:53:37.124Z,56.57
2018-03-24T15:56:05.582Z,56.46
2018-03-24T15:58:34.816Z,56.26
2018-03-24T16:01:03.939Z,57.43
2018-03-24T16:03:33.026Z,57.34
2018-03-24T16:06:02.492Z,58.73
2018-03-24T16:08:30.765Z,60.35
2018-03-24T16:10:59.057Z,60.93
2018-03-24T16:13:27.625Z,61.68
2018-03-24T16:15:57.301Z,62.33
2018-03-24T16:18:26.337Z,62.93
2018-03-24T16:20:55.748Z,62.30
2018-03-24T16:23:24.942Z,61.94
2018-03-24T16:25:53.213Z,60.95
2018-03-24T16:28:22.372Z,60.48
2018-03-24T16:30:51.713Z,61.30
2018-03-24T16:33:21.168Z,61.90
2018-03-24T16:35:49.487Z,63.70
2018-03-24T16:38:18.296Z,63.99
2018-03-24T16:40:49.139Z,63.29
2018-03-24T16:43:17.532Z,62.85
2018-03-24T16:45:45.823Z,63.48
2018-03-24T16:48:15.678Z,63.51
2018-03-24T16:50:43.948Z,64.03
2018-03-24T16:53:13.105Z,64.36
2018-03-24T16:55:41.377Z,64.62
2018-03-24T16:58:09.658Z,64.35
2018-03-24T17:00:37.953Z,64.84
2018-03-24T17:03:06.309Z,64.83
2018-03-24T17:05:35.432Z,65.39
2018-03-24T17:08:04.500Z,66.99
2018-03-24T17:10:32.836Z,67.39
2018-03-24T17:13:01.143Z,67.23
2018-03-24T17:15:30.462Z,67.07
2018-03-24T17:17:59.289Z,67.35
2018-03-24T17:20:28.343Z,67.89
2018-03-24T17:22:56.623Z,68.11
2018-03-24T17:25:24.977Z,67.46
2018-03-24T17:27:53.282Z,67.19
2018-03-24T17:30:21.873Z,67.95
2018-03-24T17:32:50.462Z,68.21
2018-03-24T17:35:19.129Z,67.86
2018-03-24T17:37:47.435Z,67.85
2018-03-24T17:40:15.890Z,68.41
2018-03-24T17:42:44.167Z,68.50
2018-03-24T17:45:12.439Z,68.71
2018-03-24T17:47:40.738Z,68.81
2018-03-24T17:50:09.263Z,69.73
2018-03-24T17:52:38.293Z,68.57
2018-03-24T17:55:07.528Z,68.77
2018-03-24T17:57:35.819Z,68.30
2018-03-24T18:00:04.133Z,68.29
2018-03-24T18:02:33.173Z,67.68
2018-03-24T18:05:01.472Z,67.82
2018-03-24T18:07:30.538Z,68.19
2018-03-24T18:09:59.632Z,67.12
2018-03-24T18:12:27.905Z,67.51
2018-03-24T18:14:56.328Z,67.06
2018-03-24T18:17:25.688Z,67.29
2018-03-24T18:19:54.597Z,68.01
2018-03-24T18:22:22.876Z,67.24
2018-03-24T18:24:51.764Z,65.86
2018-03-24T18:27:20.344Z,65.18
2018-03-24T18:29:49.136Z,64.75
2018-03-24T18:32:17.478Z,64.93
2018-03-24T18:34:45.768Z,65.40
2018-03-24T18:37:14.101Z,64.28
2018-03-24T18:39:43.863Z,65.68
2018-03-24T18:42:12.260Z,65.85
2018-03-24T18:44:40.577Z,65.55
2018-03-24T18:47:09.768Z,66.01
2018-03-24T18:49:40.150Z,66.78
2018-03-24T18:52:08.819Z,67.30
2018-03-24T18:54:38.150Z,67.83
2018-03-24T18:57:06.534Z,68.31
2018-03-24T18:59:36.163Z,67.94
2018-03-24T19:02:05.687Z,68.08
2018-03-24T19:04:34.751Z,67.88
2018-03-24T19:07:03.056Z,66.91
2018-03-24T19:09:31.328Z,67.80
2018-03-24T19:12:02.225Z,66.59
2018-03-24T19:14:30.508Z,66.26
2018-03-24T19:16:58.915Z,66.51
2018-03-24T19:19:27.215Z,66.02
2018-03-24T19:21:56.245Z,65.41
2018-03-24T19:24:24.532Z,64.86
2018-03-24T19:26:53.994Z,64.47
2018-03-24T19:29:23.040Z,65.61
2018-03-24T19:31:53.301Z,65.23
2018-03-24T19:34:22.378Z,65.31
2018-03-24T19:36:51.156Z,64.93
2018-03-24T19:39:20.378Z,64.04
2018-03-24T19:41:48.711Z,64.48
2018-03-24T19:44:16.979Z,64.36
2018-03-24T19:46:45.596Z,64.23
2018-03-24T19:49:13.985Z,64.17
2018-03-24T19:51:42.228Z,64.73
2018-03-24T19:54:10.629Z,65.22
2018-03-24T19:56:38.926Z,64.44
2018-03-24T19:59:07.695Z,65.55
2018-03-24T20:01:36.263Z,65.87
2018-03-24T20:04:05.260Z,66.14
2018-03-24T20:06:33.602Z,64.36
2018-03-24T20:09:02.710Z,66.03
2018-03-24T20:11:31.769Z,63.93
2018-03-24T20:14:01.634Z,66.13
2018-03-24T20:16:29.981Z,65.25
2018-03-24T20:18:58.516Z,67.26
2018-03-24T20:21:27.148Z,66.93
2018-03-24T20:23:57.081Z,66.96
2018-03-24T20:26:25.397Z,66.79
2018-03-24T20:28:53.691Z,67.00
2018-03-24T20:31:22.404Z,66.02
2018-03-24T20:33:52.334Z,66.62
2018-03-24T20:36:22.459Z,67.12
2018-03-24T20:38:51.838Z,66.84
2018-03-24T20:41:21.047Z,67.44
2018-03-24T20:43:49.425Z,68.60
2018-03-24T20:46:17.980Z,68.79
2018-03-24T20:48:46.365Z,68.81
2018-03-24T20:51:14.884Z,69.35
2018-03-24T20:53:44.953Z,68.78
2018-03-24T20:56:13.274Z,68.74
2018-03-24T20:58:41.566Z,68.72
2018-03-24T21:01:10.641Z,68.59
2018-03-24T21:03:39.449Z,69.23
2018-03-24T21:06:08.854Z,68.85
2018-03-24T21:08:38.958Z,70.14
2018-03-24T21:11:07.589Z,69.31
2018-03-24T21:13:35.913Z,70.04
2018-03-24T21:16:04.181Z,69.69
2018-03-24T21:18:33.389Z,68.13
2018-03-24T21:21:01.674Z,69.38
2018-03-24T21:23:30.740Z,68.99
2018-03-24T21:25:59.321Z,69.51
2018-03-24T21:28:27.823Z,69.05
2018-03-24T21:30:56.352Z,70.50
2018-03-24T21:33:25.486Z,68.91
2018-03-24T21:35:53.870Z,70.30
2018-03-24T21:38:22.165Z,70.08
2018-03-24T21:40:51.990Z,69.99
2018-03-24T21:43:20.889Z,70.46
2018-03-24T21:45:49.158Z,71.75
2018-03-24T21:48:17.496Z,71.89
2018-03-24T21:50:45.844Z,71.42
2018-03-24T21:53:14.066Z,71.43
2018-03-24T21:55:44.989Z,71.52
2018-03-24T21:58:13.286Z,71.48
2018-03-24T22:00:41.579Z,71.48
2018-03-24T22:03:10.184Z,70.91
2018-03-24T22:05:40.999Z,69.34
2018-03-24T22:08:09.659Z,69.99
2018-03-24T22:10:37.952Z,70.24
2018-03-24T22:13:06.611Z,69.67
2018-03-24T22:15:34.916Z,69.50
2018-03-24T22:18:03.182Z,69.66
2018-03-24T22:20:31.471Z,70.06
2018-03-24T22:22:59.765Z,70.56
2018-03-24T22:25:28.078Z,70.78
2018-03-24T22:27:57.104Z,70.62
2018-03-24T22:30:25.750Z,68.98
2018-03-24T22:32:55.671Z,69.02
2018-03-24T22:35:24.926Z,68.99
2018-03-24T22:37:54.509Z,69.16
2018-03-24T22:40:22.788Z,70.25
2018-03-24T22:42:51.110Z,70.40
2018-03-24T22:45:19.422Z,70.35
2018-03-24T22:47:48.100Z,69.82
2018-03-24T22:50:17.196Z,69.01
2018-03-24T22:52:47.189Z,68.30
2018-03-24T22:55:15.987Z,69.02
2018-03-24T22:57:45.669Z,70.02
2018-03-24T23:00:14.776Z,68.74
2018-03-24T23:02:43.254Z,69.03
2018-03-24T23:05:12.288Z,68.27
2018-03-24T23:07:41.827Z,67.94
2018-03-24T23:10:10.133Z,67.70
2018-03-24T23:12:38.455Z,69.00
2018-03-24T23:15:08.220Z,68.42
2018-03-24T23:17:36.511Z,69.30
2018-03-24T23:20:05.580Z,68.97
2018-03-24T23:22:33.987Z,68.84
2018-03-24T23:25:03.114Z,68.18
2018-03-24T23:27:32.304Z,68.53
2018-03-24T23:30:00.591Z,68.99
2018-03-24T23:32:29.727Z,68.29
2018-03-24T23:34:58.082Z,68.25
2018-03-24T23:37:26.390Z,68.47
2018-03-24T23:39:54.975Z,68.50
2018-03-24T23:42:23.672Z,68.44
2018-03-24T23:44:52.460Z,68.81
2018-03-24T23:47:20.797Z,68.62
2018-03-24T23:49:50.039Z,67.85
2018-03-24T23:52:18.341Z,68.40
2018-03-24T23:54:46.644Z,68.88
2018-03-24T23:57:16.030Z,68.41
2018-03-24T23:59:44.524Z,69.30
